Time;durP1;ratioP1;P1;durP2;ratioP2;P2;SDS_P1;SDS_P2;PMS_P1;PMS_P2;Temp;Humidity;BMP_temperature;BMP_pressure;BME280_temperature;BME280_humidity;BME280_pressure;Samples;Min_cycle;Max_cycle;Signal;HPM_P1;HPM_P2
2021/11/17 02:27:03;;;;;;;61.83;39.20;;;;;;;5.26;68.41;100635.28;4882483;28;101031;-76
2021/11/17 02:29:58;;;;;;;46.67;33.43;;;;;;;5.28;67.98;100625.72;4879420;28;97216;-77
2021/11/17 02:32:29;;;;;;;44.57;33.10;;;;;;;5.37;68.34;100633.47;4860299;28;97494;-77
2021/11/17 02:34:55;;;;;;;41.25;30.83;;;;;;;5.40;68.23;100636.03;4874628;28;101580;-77
2021/11/17 02:37:33;;;;;;;42.13;32.23;;;;;;;5.55;68.37;100640.25;4853131;28;101447;-78
2021/11/17 02:40:21;;;;;;;43.60;31.60;;;;;;;5.81;68.00;100635.69;4867859;28;97242;-79
2021/11/17 02:43:05;;;;;;;40.77;32.50;;;;;;;5.71;68.09;100615.81;4876607;28;96789;-76
2021/11/17 02:45:42;;;;;;;39.00;31.13;;;;;;;5.79;68.83;100615.72;4866521;28;100084;-77
2021/11/17 02:48:14;;;;;;;42.50;31.60;;;;;;;5.83;68.41;100617.44;4880240;28;101624;-76
2021/11/17 02:50:49;;;;;;;38.50;29.15;;;;;;;5.96;68.21;100613.84;4870859;28;96743;-76
2021/11/17 02:53:40;;;;;;;38.23;30.90;;;;;;;5.92;68.72;100619.94;4874511;28;97366;-76
2021/11/17 02:56:24;;;;;;;36.30;30.33;;;;;;;5.94;68.37;100620.84;4865398;28;101240;-77
2021/11/17 02:59:35;;;;;;;35.37;29.77;;;;;;;5.94;68.42;100620.00;4882190;28;97641;-77
2021/11/17 03:02:10;;;;;;;44.00;31.97;;;;;;;5.94;68.36;100617.38;4831046;28;96991;-79
2021/11/17 03:04:41;;;;;;;37.67;30.30;;;;;;;5.71;69.14;100617.56;4879227;28;97205;-77
2021/11/17 03:08:01;;;;;;;43.83;31.65;;;;;;;5.66;69.15;100626.28;4881269;28;101296;-76
2021/11/17 03:10:50;;;;;;;43.50;31.27;;;;;;;5.65;69.33;100626.31;4821749;29;98777;-77
2021/11/17 03:13:45;;;;;;;44.47;32.33;;;;;;;5.62;69.09;100615.91;4906228;28;97315;-76
2021/11/17 03:16:22;;;;;;;43.70;33.03;;;;;;;5.51;68.97;100621.22;4896016;28;96901;-76
2021/11/17 03:19:04;;;;;;;48.97;33.90;;;;;;;5.50;69.52;100619.50;4896252;28;97901;-76
2021/11/17 03:21:32;;;;;;;45.58;34.60;;;;;;;5.58;68.67;100619.41;4886617;28;101041;-76
2021/11/17 03:24:04;;;;;;;43.47;33.67;;;;;;;5.62;68.90;100627.19;4879905;28;96994;-76
2021/11/17 03:26:38;;;;;;;45.60;35.50;;;;;;;5.75;68.02;100620.13;4879471;28;97132;-76
2021/11/17 03:29:16;;;;;;;49.00;34.93;;;;;;;5.74;67.83;100614.94;4905766;28;97576;-80
2021/11/17 03:32:19;;;;;;;48.10;36.63;;;;;;;5.65;68.40;100619.34;4878989;28;101323;-76
2021/11/17 03:34:57;;;;;;;47.53;35.27;;;;;;;5.47;69.06;100611.72;4904036;28;97092;-77
2021/11/17 03:37:57;;;;;;;51.43;37.07;;;;;;;5.54;68.47;100615.97;4882264;28;97700;-77
2021/11/17 03:40:55;;;;;;;55.37;39.53;;;;;;;5.54;68.28;100612.50;4881484;28;99523;-76
2021/11/17 03:43:35;;;;;;;58.43;42.10;;;;;;;5.44;68.53;100606.53;4892197;28;98167;-77
2021/11/17 03:46:19;;;;;;;55.13;41.53;;;;;;;5.38;68.94;100611.75;4863557;28;97541;-77
2021/11/17 03:49:07;;;;;;;55.53;39.93;;;;;;;5.21;69.44;100614.50;4866049;28;100070;-77
2021/11/17 03:51:39;;;;;;;59.07;39.77;;;;;;;5.23;69.52;100615.34;4897729;28;97496;-77
2021/11/17 03:54:20;;;;;;;65.38;43.63;;;;;;;5.32;69.08;100617.00;4879501;28;101298;-78
2021/11/17 03:56:59;;;;;;;60.87;42.67;;;;;;;5.34;69.27;100612.66;4885624;28;97197;-77
2021/11/17 03:59:48;;;;;;;56.73;39.57;;;;;;;5.30;68.98;100606.63;4881185;28;97092;-77
2021/11/17 04:02:20;;;;;;;54.57;37.93;;;;;;;5.17;70.20;100607.59;4830659;28;97511;-76
2021/11/17 04:05:01;;;;;;;52.22;39.20;;;;;;;5.24;70.00;100608.44;4893826;28;97798;-77
2021/11/17 04:07:42;;;;;;;50.50;37.73;;;;;;;5.37;69.39;100603.09;4880693;28;96714;-77
2021/11/17 04:10:44;;;;;;;55.20;39.00;;;;;;;5.50;69.00;100601.25;4872019;28;97329;-79
2021/11/17 04:13:25;;;;;;;58.88;39.10;;;;;;;5.54;68.82;100602.94;4843226;28;98561;-76
2021/11/17 04:16:00;;;;;;;60.53;39.27;;;;;;;5.54;68.43;100607.31;4864501;28;101190;-77
2021/11/17 04:18:43;;;;;;;54.00;39.70;;;;;;;5.57;68.67;100597.72;4879841;28;96865;-77
2021/11/17 04:21:17;;;;;;;57.00;39.47;;;;;;;5.54;68.71;100596.88;4879628;28;96961;-77
2021/11/17 04:24:39;;;;;;;58.00;39.90;;;;;;;5.61;68.61;100602.03;4896227;28;98473;-76
2021/11/17 04:27:32;;;;;;;59.63;39.80;;;;;;;5.52;68.89;100598.63;4876572;28;101586;-76
2021/11/17 04:30:23;;;;;;;62.90;40.63;;;;;;;5.55;68.43;100596.84;4854524;28;96985;-77
2021/11/17 04:33:17;;;;;;;61.73;42.80;;;;;;;5.48;68.65;100591.72;4856445;28;96730;-76
2021/11/17 04:36:13;;;;;;;56.03;40.73;;;;;;;5.49;68.39;100585.63;4878841;28;101634;-77
2021/11/17 04:39:05;;;;;;;61.17;42.07;;;;;;;5.39;69.26;100582.25;4878894;28;98451;-76
2021/11/17 04:41:50;;;;;;;61.60;41.40;;;;;;;5.44;68.71;100581.34;4894770;28;97125;-76
2021/11/17 04:44:31;;;;;;;60.83;41.20;;;;;;;5.49;68.80;100583.88;4887949;28;96904;-77
2021/11/17 04:47:04;;;;;;;66.37;42.30;;;;;;;5.48;68.72;100584.78;4862580;28;101104;-76
2021/11/17 04:49:45;;;;;;;65.37;43.10;;;;;;;5.39;69.35;100579.66;4878182;28;101107;-76
2021/11/17 04:52:20;;;;;;;62.60;43.20;;;;;;;5.38;69.53;100575.31;4874554;28;96866;-77
2021/11/17 04:54:54;;;;;;;66.90;43.97;;;;;;;5.40;69.08;100574.41;4877895;28;96987;-77
2021/11/17 04:57:56;;;;;;;62.77;42.53;;;;;;;5.34;69.39;100577.09;4861117;28;101465;-78
2021/11/17 05:00:38;;;;;;;66.23;39.27;;;;;;;5.50;69.04;100580.44;4862582;28;101765;-77
2021/11/17 05:03:28;;;;;;;65.00;40.33;;;;;;;5.51;69.14;100576.94;4859049;28;97199;-77
2021/11/17 05:06:06;;;;;;;59.40;38.27;;;;;;;5.57;68.89;100579.47;4878435;28;96653;-76
2021/11/17 05:08:34;;;;;;;63.73;39.93;;;;;;;5.53;68.28;100576.94;4862128;28;101629;-77
2021/11/17 05:11:19;;;;;;;68.97;41.83;;;;;;;5.44;69.33;100577.88;4875535;28;101254;-77
2021/11/17 05:13:56;;;;;;;60.13;38.10;;;;;;;5.50;68.63;100579.53;4875553;28;97338;-77
2021/11/17 05:16:31;;;;;;;59.90;38.13;;;;;;;5.54;68.80;100573.44;4865353;28;96774;-76
2021/11/17 05:19:22;;;;;;;56.37;38.47;;;;;;;5.58;68.22;100573.38;4895100;28;97657;-76
2021/11/17 05:22:12;;;;;;;61.80;38.33;;;;;;;5.61;68.00;100570.78;4845885;28;101837;-76
2021/11/17 05:24:47;;;;;;;63.87;41.03;;;;;;;5.67;67.78;100565.50;4852318;28;97392;-77
2021/11/17 05:27:25;;;;;;;67.70;40.40;;;;;;;5.66;67.53;100566.38;4858434;28;96752;-76
2021/11/17 05:30:17;;;;;;;57.17;38.07;;;;;;;5.71;67.83;100570.69;4880737;28;101395;-76
2021/11/17 05:33:10;;;;;;;63.00;40.60;;;;;;;5.69;67.41;100568.09;4861912;28;101143;-76
2021/11/17 05:35:35;;;;;;;60.03;39.13;;;;;;;5.69;67.58;100562.88;4867507;28;96749;-77
2021/11/17 05:38:16;;;;;;;61.25;41.17;;;;;;;5.75;67.83;100559.34;4860458;28;96815;-76
2021/11/17 05:40:51;;;;;;;60.07;39.33;;;;;;;5.76;67.52;100569.75;4851593;28;98603;-77
2021/11/17 05:43:23;;;;;;;57.23;37.63;;;;;;;5.75;67.69;100569.75;4858770;28;101798;-77
2021/11/17 05:46:08;;;;;;;67.70;40.93;;;;;;;5.70;68.07;100561.13;4848471;28;96807;-77
2021/11/17 05:48:55;;;;;;;63.00;40.23;;;;;;;5.70;67.77;100567.19;4862779;28;96970;-76
2021/11/17 05:51:30;;;;;;;64.10;38.90;;;;;;;5.63;68.09;100569.00;4862655;28;101742;-77
2021/11/17 05:54:10;;;;;;;66.53;40.23;;;;;;;5.62;68.54;100574.25;4879700;28;97514;-77
2021/11/17 05:56:46;;;;;;;65.87;41.47;;;;;;;5.66;68.13;100565.50;4857317;28;96769;-77
2021/11/17 05:59:18;;;;;;;71.67;44.07;;;;;;;5.62;68.10;100566.44;4882279;28;97094;-78
2021/11/17 06:01:44;;;;;;;65.87;41.00;;;;;;;5.59;68.01;100556.03;4863081;28;101334;-77
2021/11/17 06:04:11;;;;;;;57.63;38.53;;;;;;;5.58;68.36;100562.09;4868439;28;101514;-77
2021/11/17 06:06:37;;;;;;;66.37;40.40;;;;;;;5.57;68.04;100560.41;4864090;28;97093;-77
2021/11/17 06:09:05;;;;;;;64.97;38.73;;;;;;;5.58;68.10;100557.75;4857609;28;97965;-77
2021/11/17 06:11:41;;;;;;;65.43;41.43;;;;;;;5.60;68.11;100558.63;4908590;28;97452;-77
2021/11/17 06:14:10;;;;;;;66.23;40.90;;;;;;;5.67;68.07;100560.31;4865219;28;97470;-77
2021/11/17 06:16:47;;;;;;;66.07;41.90;;;;;;;5.69;67.57;100570.69;4866449;28;96993;-77
2021/11/17 06:19:13;;;;;;;60.60;40.50;;;;;;;5.64;67.87;100572.47;4852416;28;96926;-78
2021/11/17 06:21:41;;;;;;;66.80;42.30;;;;;;;5.67;67.90;100568.13;4883531;28;97815;-77
2021/11/17 06:24:08;;;;;;;73.40;45.07;;;;;;;5.69;68.02;100583.72;4875961;28;97962;-76
2021/11/17 06:26:37;;;;;;;65.13;40.73;;;;;;;5.63;68.36;100591.59;4852266;28;96838;-77
2021/11/17 06:29:05;;;;;;;65.60;41.33;;;;;;;5.67;68.29;100586.34;4848734;28;98249;-76
2021/11/17 06:31:32;;;;;;;69.03;41.87;;;;;;;5.68;67.90;100585.47;4834145;28;101557;-77
2021/11/17 06:33:57;;;;;;;73.50;43.00;;;;;;;5.68;67.98;100582.00;4847448;28;101245;-76
2021/11/17 06:36:23;;;;;;;69.87;43.10;;;;;;;5.68;68.20;100584.59;4875349;28;97308;-76
2021/11/17 06:38:49;;;;;;;74.07;40.97;;;;;;;5.66;68.49;100587.19;4850941;28;97678;-76
2021/11/17 06:41:15;;;;;;;66.10;39.75;;;;;;;5.68;68.29;100588.06;4848781;28;100936;-79
2021/11/17 06:43:41;;;;;;;66.60;42.03;;;;;;;5.66;68.53;100595.00;4833580;28;101448;-76
2021/11/17 06:46:07;;;;;;;75.57;44.63;;;;;;;5.70;68.32;100600.19;4877321;28;97481;-77
2021/11/17 06:48:34;;;;;;;70.87;42.43;;;;;;;5.69;67.85;100609.75;4863843;28;97252;-77
2021/11/17 06:51:00;;;;;;;71.13;43.93;;;;;;;5.67;68.16;100601.97;4870464;28;99323;-76
2021/11/17 06:53:27;;;;;;;67.03;42.07;;;;;;;5.70;68.09;100601.06;4869100;28;97526;-77
2021/11/17 06:55:53;;;;;;;67.07;41.07;;;;;;;5.71;68.21;100601.94;4853480;28;97152;-76
2021/11/17 06:58:20;;;;;;;57.67;38.17;;;;;;;5.72;68.27;100603.66;4852755;28;96812;-78
2021/11/17 07:00:47;;;;;;;66.03;42.57;;;;;;;5.71;67.95;100600.19;4867095;28;97523;-77
2021/11/17 07:03:14;;;;;;;67.97;42.30;;;;;;;5.64;68.54;100607.22;4889777;28;97422;-78
2021/11/17 07:05:39;;;;;;;68.47;41.60;;;;;;;5.51;68.87;100602.97;4890851;28;97073;-77
2021/11/17 07:08:05;;;;;;;67.10;41.40;;;;;;;5.57;68.48;100610.72;4858360;28;96941;-77
2021/11/17 07:10:33;;;;;;;69.57;43.77;;;;;;;5.72;68.70;100606.25;4884296;28;97490;-77
2021/11/17 07:12:58;;;;;;;59.90;38.30;;;;;;;5.68;68.82;100610.66;4884668;28;98102;-76
2021/11/17 07:15:26;;;;;;;64.70;40.97;;;;;;;5.65;68.43;100613.28;4883579;28;97434;-76
2021/11/17 07:17:53;;;;;;;63.13;39.43;;;;;;;5.68;68.65;100611.50;4872433;28;96949;-77
2021/11/17 07:20:19;;;;;;;62.00;39.07;;;;;;;5.67;68.58;100619.31;4888664;28;97664;-76
2021/11/17 07:22:46;;;;;;;65.45;39.88;;;;;;;5.71;68.46;100612.38;4889696;28;101219;-76
2021/11/17 07:25:15;;;;;;;64.13;39.50;;;;;;;5.75;68.41;100598.41;4878532;28;97196;-76
2021/11/17 07:27:41;;;;;;;72.90;41.93;;;;;;;5.65;68.64;100608.06;4873415;28;97369;-77
2021/11/17 07:30:13;;;;;;;61.27;39.87;;;;;;;5.72;68.17;100611.47;4865213;28;101734;-77
2021/11/17 07:32:38;;;;;;;66.97;39.50;;;;;;;5.76;68.42;100606.22;4877130;28;101776;-77
2021/11/17 07:35:05;;;;;;;61.70;39.97;;;;;;;5.85;68.44;100605.28;4865901;28;97560;-76
2021/11/17 07:37:31;;;;;;;62.03;38.93;;;;;;;5.89;67.93;100614.78;4863141;28;97459;-77
2021/11/17 07:39:56;;;;;;;59.00;38.90;;;;;;;5.93;68.10;100613.88;4883000;28;101253;-76
2021/11/17 07:42:22;;;;;;;64.00;40.53;;;;;;;5.91;68.04;100620.84;4903986;28;100032;-77
2021/11/17 07:44:49;;;;;;;64.60;39.50;;;;;;;5.81;68.33;100613.97;4867804;28;96856;-78
2021/11/17 07:47:49;;;;;;;66.75;39.42;;;;;;;5.84;68.59;100616.56;4877105;28;96823;-82
2021/11/17 07:50:16;;;;;;;60.37;38.27;;;;;;;5.95;68.33;100604.31;4903354;28;97585;-79
2021/11/17 07:52:54;;;;;;;67.13;39.23;;;;;;;5.97;68.14;100614.75;4884500;28;101203;-79
2021/11/17 07:55:20;;;;;;;65.40;40.28;;;;;;;5.95;68.33;100617.34;4869610;28;96642;-78
2021/11/17 07:57:54;;;;;;;61.80;37.40;;;;;;;5.94;68.46;100618.25;4885930;28;97797;-78
2021/11/17 08:00:28;;;;;;;59.13;37.13;;;;;;;5.96;68.52;100624.28;4907883;28;101980;-83
2021/11/17 08:03:32;;;;;;;69.73;40.20;;;;;;;5.92;68.74;100625.16;4908952;28;99308;-84
2021/11/17 08:06:14;;;;;;;62.70;40.03;;;;;;;5.92;69.35;100616.50;4909855;28;96325;-84
2021/11/17 08:12:08;;;;;;;59.47;38.93;;;;;;;6.15;68.77;100624.09;4924230;28;99744;-82
2021/11/17 08:14:33;;;;;;;67.30;41.53;;;;;;;6.26;68.28;100620.50;4910060;28;96756;-85
2021/11/17 08:17:26;;;;;;;61.53;37.40;;;;;;;6.27;68.01;100634.38;4908868;28;96297;-85
2021/11/17 08:19:52;;;;;;;72.53;41.67;;;;;;;6.32;67.88;100635.19;4905601;28;96533;-82
2021/11/17 08:22:35;;;;;;;63.07;41.97;;;;;;;6.24;68.32;100624.84;4907232;28;99863;-83
2021/11/17 08:25:01;;;;;;;62.88;38.22;;;;;;;6.31;68.07;100634.34;4892121;28;99720;-84
2021/11/17 08:27:53;;;;;;;58.88;37.72;;;;;;;6.35;68.43;100637.78;4909360;28;96447;-85
2021/11/17 08:30:21;;;;;;;62.20;38.40;;;;;;;6.28;68.45;100631.78;4916915;28;96837;-80
2021/11/17 08:32:46;;;;;;;62.10;37.45;;;;;;;6.28;68.91;100638.72;4886292;28;101563;-77
2021/11/17 08:35:36;;;;;;;57.60;38.72;;;;;;;6.36;68.68;100634.28;4884647;28;101798;-78
2021/11/17 08:41:50;;;;;;;59.25;36.60;;;;;;;6.44;68.54;100628.97;4915668;28;96599;-78
2021/11/17 08:47:43;;;;;;;54.97;36.42;;;;;;;6.60;68.47;100640.06;4895578;28;101674;-76
2021/11/17 08:54:02;;;;;;;64.63;38.70;;;;;;;6.77;67.64;100636.34;4903077;28;96724;-77
2021/11/17 08:56:30;;;;;;;58.88;39.22;;;;;;;6.78;68.08;100640.72;4883491;28;97606;-79
2021/11/17 09:02:46;;;;;;;61.20;37.25;;;;;;;6.95;68.01;100648.31;4917573;28;96865;-79
2021/11/17 09:05:23;;;;;;;61.92;36.55;;;;;;;7.01;67.81;100648.22;4887405;28;96668;-79
2021/11/17 09:15:55;;;;;;;;;;;;;;;7.29;67.64;100633.88;4976541;23;99213;-81
2021/11/17 09:22:10;;;;;;;59.25;35.72;;;;;;;7.39;67.45;100633.72;4914786;28;96532;-86
2021/11/17 09:24:35;;;;;;;55.47;36.92;;;;;;;7.51;67.32;100647.47;4858948;28;96848;-84
2021/11/17 09:27:04;;;;;;;58.05;37.25;;;;;;;7.68;66.79;100651.53;4868085;28;96451;-82
2021/11/17 09:32:12;;;;;;;53.58;34.92;;;;;;;7.79;66.51;100651.34;5487098;23;98578;-82
2021/11/17 09:34:39;;;;;;;51.53;33.45;;;;;;;7.79;66.96;100650.47;4861612;28;96358;-83
2021/11/17 09:37:07;;;;;;;56.78;37.08;;;;;;;7.81;66.66;100646.94;4892540;28;96732;-80
2021/11/17 09:39:46;;;;;;;53.45;35.25;;;;;;;7.83;67.08;100665.22;5337436;23;101601;-83
2021/11/17 09:57:33;;;;;;;54.72;38.65;;;;;;;7.69;67.54;100655.00;5178619;23;101404;-81
2021/11/17 10:19:25;;;;;;;43.72;32.22;;;;;;;7.96;65.96;100644.97;6015425;23;98804;-79
2021/11/17 10:22:02;;;;;;;48.10;31.50;;;;;;;7.99;65.66;100644.91;4868934;28;97821;-83
2021/11/17 10:24:46;;;;;;;42.25;31.38;;;;;;;8.00;65.07;100637.03;4872739;28;96067;-81
2021/11/17 10:27:15;;;;;;;44.22;33.13;;;;;;;8.06;65.25;100649.13;4872089;28;96650;-81
2021/11/17 10:29:46;;;;;;;43.28;33.00;;;;;;;8.08;65.19;100642.97;4885857;28;96801;-82
2021/11/17 10:50:41;;;;;;;40.47;31.23;;;;;;;8.19;64.71;100618.38;5199377;23;97123;-83
2021/11/17 10:57:22;;;;;;;42.45;32.40;;;;;;;8.24;64.45;100624.41;4906509;28;96518;-84
2021/11/17 10:59:50;;;;;;;45.60;33.17;;;;;;;8.27;64.57;100626.94;4867829;28;98012;-80
2021/11/17 11:02:40;;;;;;;45.85;33.33;;;;;;;8.26;64.42;100609.50;4845488;28;96637;-80
2021/11/17 11:05:08;;;;;;;47.28;33.50;;;;;;;8.28;64.52;100616.44;4894872;28;96582;-79
2021/11/17 11:07:40;;;;;;;47.67;35.60;;;;;;;8.30;64.16;100614.66;4854242;28;100623;-78
2021/11/17 11:10:13;;;;;;;47.90;34.63;;;;;;;8.34;64.22;100610.22;4871572;28;98035;-79
2021/11/17 11:12:39;;;;;;;46.85;33.78;;;;;;;8.37;64.46;100610.16;4888242;28;96793;-81
2021/11/17 11:15:12;;;;;;;47.40;34.20;;;;;;;8.37;63.99;100604.94;4894675;28;96948;-80
2021/11/17 11:18:06;;;;;;;44.10;33.72;;;;;;;8.40;64.28;100610.13;4871108;28;102144;-81
2021/11/17 11:20:44;;;;;;;46.03;33.90;;;;;;;8.42;63.94;100597.88;4890132;28;97968;-81
2021/11/17 11:23:15;;;;;;;49.17;35.15;;;;;;;8.44;64.11;100603.97;4887472;28;97088;-80
2021/11/17 11:25:47;;;;;;;49.22;35.20;;;;;;;8.46;63.80;100596.91;4892641;28;97956;-81
2021/11/17 11:28:24;;;;;;;45.03;34.72;;;;;;;8.46;64.09;100612.63;4903659;28;96824;-81
2021/11/17 11:31:02;;;;;;;98.47;58.45;;;;;;;8.47;64.25;100597.81;4896899;28;96813;-81
2021/11/17 11:33:49;;;;;;;62.08;41.67;;;;;;;8.47;63.68;100598.66;4894366;28;96693;-80
2021/11/17 11:36:14;;;;;;;49.88;35.05;;;;;;;8.49;63.24;100593.38;4875397;28;96824;-80
2021/11/17 11:38:42;;;;;;;61.58;36.85;;;;;;;8.55;63.84;100594.13;4877477;28;101268;-81
2021/11/17 11:41:18;;;;;;;51.70;35.38;;;;;;;8.52;63.22;100588.97;4866207;28;100462;-81
2021/11/17 11:43:45;;;;;;;45.95;34.15;;;;;;;8.51;63.42;100578.53;4872293;28;98444;-79
2021/11/17 11:46:35;;;;;;;44.70;33.13;;;;;;;8.53;63.62;100572.38;4857667;28;96843;-81
2021/11/17 11:49:32;;;;;;;49.20;35.05;;;;;;;8.55;63.30;100575.81;4872737;28;100603;-81
2021/11/17 11:52:06;;;;;;;47.40;34.05;;;;;;;8.56;63.36;100567.06;4866346;28;100430;-81
2021/11/17 11:54:50;;;;;;;47.65;33.20;;;;;;;8.56;63.35;100574.06;4877028;28;96768;-81
2021/11/17 11:57:37;;;;;;;46.20;35.50;;;;;;;8.55;63.28;100562.72;4891290;28;96684;-80
2021/11/17 12:28:08;;;;;;;45.97;33.38;;;;;;;8.63;62.38;100566.91;4929541;28;96565;-80
2021/11/17 12:30:42;;;;;;;49.60;34.92;;;;;;;8.64;62.88;100577.38;4898179;28;96728;-82
2021/11/17 12:33:30;;;;;;;47.80;34.83;;;;;;;8.59;63.18;100574.00;4887105;28;100742;-78
2021/11/17 12:36:19;;;;;;;50.25;35.83;;;;;;;8.58;62.50;100574.84;4901303;28;100820;-79
2021/11/17 12:38:46;;;;;;;48.42;33.90;;;;;;;8.56;62.85;100571.44;4894364;28;96829;-78
2021/11/17 12:41:34;;;;;;;48.30;33.92;;;;;;;8.57;63.20;100573.16;4883607;28;96626;-79
2021/11/17 12:44:23;;;;;;;46.85;34.58;;;;;;;8.58;63.00;100572.25;4884009;28;97540;-77
2021/11/17 12:46:59;;;;;;;47.10;33.60;;;;;;;8.55;63.06;100575.81;4855783;28;101696;-79
2021/11/17 12:49:28;;;;;;;46.97;33.53;;;;;;;8.55;63.22;100582.78;4870783;28;96813;-78
2021/11/17 12:52:05;;;;;;;47.08;35.00;;;;;;;8.58;62.83;100575.75;4868340;28;96975;-79
2021/11/17 12:54:46;;;;;;;48.25;33.95;;;;;;;8.54;63.16;100578.44;4859640;28;100994;-79
2021/11/17 12:57:12;;;;;;;53.53;35.38;;;;;;;8.53;62.73;100582.81;4860859;28;101292;-78
2021/11/17 12:59:53;;;;;;;50.88;36.58;;;;;;;8.53;63.00;100585.44;4884078;28;96635;-79
2021/11/17 13:02:21;;;;;;;46.42;35.42;;;;;;;8.58;62.95;100582.72;4874668;28;96832;-78
2021/11/17 13:04:54;;;;;;;52.83;35.90;;;;;;;8.53;62.91;100574.97;4907562;28;98640;-80
2021/11/17 13:08:00;;;;;;;50.45;36.00;;;;;;;8.51;63.14;100573.28;4867389;28;99427;-81
2021/11/17 13:18:06;;;;;;;53.92;36.72;;;;;;;8.55;62.31;100562.72;4823475;29;96661;-85
2021/11/17 13:20:42;;;;;;;47.15;36.17;;;;;;;8.46;62.57;100575.97;4825303;29;99470;-81
2021/11/17 13:23:51;;;;;;;48.33;35.97;;;;;;;8.47;62.89;100579.50;4825809;29;96819;-86
2021/11/17 13:26:51;;;;;;;48.58;35.80;;;;;;;8.50;63.23;100584.66;4837411;29;96208;-89
2021/11/17 13:33:49;;;;;;;51.40;35.15;;;;;;;8.46;62.88;100578.59;4823391;29;98011;-87
2021/11/17 13:50:30;;;;;;;50.17;35.67;;;;;;;8.42;62.76;100587.41;4884036;28;97306;-85
2021/11/17 14:01:56;;;;;;;;;;;;;;;8.39;62.89;100583.09;5077684;23;98254;-80
2021/11/17 14:06:58;;;;;;;43.42;32.50;;;;;;;8.45;63.46;100578.66;5734835;23;98964;-82
2021/11/17 14:09:24;;;;;;;50.65;34.63;;;;;;;8.43;63.50;100577.81;4910510;28;95844;-83
2021/11/17 14:11:55;;;;;;;44.50;32.70;;;;;;;8.40;63.41;100570.88;5020660;23;98077;-86
2021/11/17 14:14:23;;;;;;;49.95;35.03;;;;;;;8.38;63.13;100564.81;4889686;28;99692;-85
2021/11/17 14:16:50;;;;;;;47.15;33.13;;;;;;;8.36;63.27;100570.06;4873055;28;99798;-86
2021/11/17 14:19:23;;;;;;;47.38;33.50;;;;;;;8.41;63.32;100570.00;4873014;28;95835;-90
2021/11/17 14:27:15;;;;;;;48.00;34.50;;;;;;;8.42;63.51;100583.94;4880336;29;96775;-84
2021/11/17 14:35:02;;;;;;;54.38;35.28;;;;;;;8.35;63.01;100570.13;5458796;23;98333;-85
2021/11/17 14:38:18;;;;;;;50.03;32.92;;;;;;;8.41;62.80;100590.94;4890981;28;99667;-85
2021/11/17 14:41:21;;;;;;;44.58;33.17;;;;;;;8.32;63.20;100591.06;4891194;28;96410;-85
2021/11/17 14:43:47;;;;;;;45.42;31.40;;;;;;;8.28;63.19;100592.03;4885426;28;96981;-80
2021/11/17 14:49:24;;;;;;;44.78;33.42;;;;;;;8.30;63.44;100588.50;4902428;28;97520;-79
2021/11/17 14:56:17;;;;;;;41.28;29.77;;;;;;;8.35;62.54;100583.19;5151374;23;98687;-82
2021/11/17 14:58:43;;;;;;;45.55;31.90;;;;;;;8.24;62.11;100575.56;4872202;28;99364;-83
2021/11/17 15:01:18;;;;;;;45.10;31.75;;;;;;;8.22;62.61;100574.72;4886942;28;99692;-80
2021/11/17 15:06:22;;;;;;;41.17;30.50;;;;;;;8.24;62.73;100585.16;5097758;23;98250;-80
2021/11/17 15:12:00;;;;;;;42.70;30.15;;;;;;;8.27;62.80;100599.03;5848064;23;99011;-82
2021/11/17 15:14:32;;;;;;;43.40;30.75;;;;;;;8.27;62.46;100593.81;5085513;23;98565;-84
2021/11/17 15:17:29;;;;;;;;;;;;;;;8.25;62.31;100599.94;5131463;23;99081;-81
2021/11/17 15:19:55;;;;;;;41.15;28.23;;;;;;;8.20;62.51;100597.41;4917671;28;97142;-86
2021/11/17 15:22:23;;;;;;;39.97;29.63;;;;;;;8.20;62.38;100599.16;4904273;28;99569;-88
2021/11/17 15:24:52;;;;;;;41.10;27.98;;;;;;;8.30;62.58;100616.41;4888805;28;96368;-81
2021/11/17 15:33:58;;;;;;;38.28;28.38;;;;;;;8.23;62.63;100602.63;5092773;23;99073;-76
2021/11/17 15:36:25;;;;;;;34.72;26.88;;;;;;;8.27;62.26;100606.88;4872225;28;96671;-78
2021/11/17 15:38:52;;;;;;;40.97;30.60;;;;;;;8.28;62.16;100607.72;4884963;28;96759;-85
2021/11/17 15:41:46;;;;;;;40.47;29.77;;;;;;;8.25;62.69;100613.88;4871078;28;99362;-89
2021/11/17 15:44:13;;;;;;;42.25;29.83;;;;;;;8.19;62.40;100605.31;4871642;28;98933;-83
2021/11/17 15:47:01;;;;;;;41.83;31.17;;;;;;;8.32;62.90;100607.66;4880189;28;96673;-81
2021/11/17 15:49:28;;;;;;;42.38;30.60;;;;;;;8.24;62.37;100604.31;4885508;28;96577;-85
2021/11/17 15:51:54;;;;;;;39.88;29.70;;;;;;;8.26;62.70;100606.88;4872437;28;96751;-81
2021/11/17 15:57:44;;;;;;;42.90;31.27;;;;;;;8.24;62.28;100601.72;4859904;28;96465;-81
2021/11/17 16:00:12;;;;;;;39.88;28.80;;;;;;;8.26;62.63;100601.66;4862770;28;96730;-82
2021/11/17 16:02:37;;;;;;;41.13;29.60;;;;;;;8.41;61.91;100595.28;4873636;28;96656;-80
2021/11/17 16:07:51;;;;;;;40.60;29.10;;;;;;;8.29;61.58;100592.03;5705846;23;98463;-83
2021/11/17 16:18:39;;;;;;;40.63;28.42;;;;;;;8.20;62.54;100614.88;4903448;28;96809;-82
2021/11/17 16:27:26;;;;;;;37.95;27.83;;;;;;;8.24;62.65;100608.69;4826596;28;99897;-84
2021/11/17 16:29:53;;;;;;;44.00;30.75;;;;;;;8.29;62.50;100606.84;4917594;28;96751;-79
2021/11/17 16:32:21;;;;;;;44.10;31.00;;;;;;;8.36;62.55;100611.06;4853762;28;96873;-77
2021/11/17 16:34:48;;;;;;;38.20;29.30;;;;;;;8.28;62.80;100613.81;4856892;28;96723;-79
2021/11/17 16:37:14;;;;;;;42.28;30.85;;;;;;;8.23;62.75;100613.06;4877971;28;101052;-77
2021/11/17 16:39:39;;;;;;;45.05;31.05;;;;;;;8.26;62.28;100627.81;4852608;28;101310;-77
2021/11/17 16:42:06;;;;;;;46.55;30.60;;;;;;;8.23;62.97;100626.16;4868512;28;96992;-77
2021/11/17 16:44:31;;;;;;;43.60;30.65;;;;;;;8.19;62.82;100624.47;4852387;28;96795;-77
2021/11/17 16:46:57;;;;;;;47.03;33.15;;;;;;;8.21;63.16;100627.94;4843871;28;101559;-77
2021/11/17 16:49:24;;;;;;;42.20;31.17;;;;;;;8.22;63.05;100627.03;4841251;28;101316;-82
2021/11/17 17:02:53;;;;;;;;;;;;;;;8.26;63.13;100630.44;5247472;23;98543;-86
2021/11/17 17:05:20;;;;;;;46.88;31.95;;;;;;;8.20;63.71;100622.72;4886862;28;95970;-86
2021/11/17 17:12:27;;;;;;;50.33;34.13;;;;;;;8.23;63.36;100644.47;4882794;28;96519;-81
2021/11/17 17:14:56;;;;;;;45.38;33.40;;;;;;;8.17;63.72;100644.53;4852360;29;96698;-78
2021/11/17 17:17:23;;;;;;;47.75;33.05;;;;;;;8.17;63.55;100631.47;4833373;28;96888;-80
2021/11/17 17:19:49;;;;;;;50.53;32.60;;;;;;;8.19;63.94;100637.53;4846140;28;101116;-87
2021/11/17 17:35:45;;;;;;;50.38;31.65;;;;;;;8.16;64.09;100640.22;5035270;23;97966;-82
2021/11/17 17:38:11;;;;;;;41.85;29.90;;;;;;;8.28;64.01;100646.97;4906928;28;95942;-82
2021/11/17 17:40:37;;;;;;;51.50;33.38;;;;;;;8.23;63.98;100649.69;4892084;28;100540;-83
2021/11/17 17:45:51;;;;;;;40.00;29.05;;;;;;;8.12;64.03;100644.66;4946736;23;96491;-81
2021/11/17 17:48:17;;;;;;;45.38;31.13;;;;;;;8.17;64.11;100652.38;4886787;28;96874;-82
2021/11/17 17:50:44;;;;;;;38.13;28.10;;;;;;;8.22;64.60;100647.09;4888279;28;99795;-79
2021/11/17 17:53:19;;;;;;;40.38;27.70;;;;;;;8.12;64.51;100649.88;4907717;28;101454;-83
2021/11/17 17:55:46;;;;;;;42.03;29.75;;;;;;;8.07;64.75;100637.78;4877147;28;95846;-86
2021/11/17 17:58:11;;;;;;;44.28;30.38;;;;;;;8.12;64.50;100655.13;4875756;28;96383;-82
2021/11/17 18:00:43;;;;;;;48.83;31.50;;;;;;;8.07;64.75;100650.84;4897342;28;99340;-81
2021/11/17 18:03:11;;;;;;;49.97;32.67;;;;;;;8.08;64.61;100653.44;4883001;28;101320;-84
2021/11/17 18:05:42;;;;;;;47.55;33.30;;;;;;;8.09;65.03;100655.16;4874528;28;96614;-83
2021/11/17 18:08:09;;;;;;;49.17;32.78;;;;;;;8.09;65.09;100660.41;4892328;28;97174;-77
2021/11/17 18:10:37;;;;;;;52.25;33.85;;;;;;;8.13;64.79;100664.66;4884913;28;97488;-77
2021/11/17 18:13:04;;;;;;;49.47;34.45;;;;;;;8.11;64.83;100663.81;4874864;28;101726;-77
2021/11/17 18:15:34;;;;;;;48.10;32.92;;;;;;;8.14;64.98;100669.03;4870793;28;97033;-77
2021/11/17 18:18:00;;;;;;;50.03;33.55;;;;;;;8.12;65.52;100678.66;4857730;28;98597;-77